sensor_id;sensor_type;location;lat;lon;timestamp;P1;durP1;ratioP1;P2;durP2;ratioP2
25443;SDS011;13368;52.346;4.678;2022-07-18T00:00:00;11.3;;;7.3;;
25443;SDS011;13368;52.346;4.678;2022-07-18T00:05:00;10.8;;;7.6;;
25443;SDS011;13368;52.346;4.678;2022-07-18T00:10:00;11.2;;;7.4;;
25443;SDS011;13368;52.346;4.678;2022-07-18T00:15:00;13.0;;;9.3;;
25443;SDS011;13368;52.346;4.678;2022-07-18T00:20:00;11.7;;;7.5;;
25443;SDS011;13368;52.346;4.678;2022-07-18T00:25:00;11.5;;;7.4;;
25443;SDS011;13368;52.346;4.678;2022-07-18T00:30:00;13.3;;;7.1;;
25443;SDS011;13368;52.346;4.678;2022-07-18T00:35:00;11.7;;;6.8;;
25443;SDS011;13368;52.346;4.678;2022-07-18T00:40:00;11.6;;;7.5;;
25443;SDS011;13368;52.346;4.678;2022-07-18T00:45:00;10.9;;;7.4;;
25443;SDS011;13368;52.346;4.678;2022-07-18T00:50:00;14.2;;;8.3;;
25443;SDS011;13368;52.346;4.678;2022-07-18T00:55:00;10.1;;;7.4;;
25443;SDS011;13368;52.346;4.678;2022-07-18T01:00:00;13.3;;;8.2;;
25443;SDS011;13368;52.346;4.678;2022-07-18T01:05:00;12.5;;;7.7;;
25443;SDS011;13368;52.346;4.678;2022-07-18T01:10:00;11.1;;;7.3;;
25443;SDS011;13368;52.346;4.678;2022-07-18T01:15:00;9.9;;;7.1;;
25443;SDS011;13368;52.346;4.678;2022-07-18T01:20:00;13.7;;;8.0;;
25443;SDS011;13368;52.346;4.678;2022-07-18T01:25:00;11.3;;;7.3;;
25443;SDS011;13368;52.346;4.678;2022-07-18T01:30:00;10.6;;;7.0;;
25443;SDS011;13368;52.346;4.678;2022-07-18T01:35:00;12.7;;;7.8;;
25443;SDS011;13368;52.346;4.678;2022-07-18T01:40:00;11.1;;;7.2;;
25443;SDS011;13368;52.346;4.678;2022-07-18T01:45:00;12.1;;;7.4;;
25443;SDS011;13368;52.346;4.678;2022-07-18T01:50:00;12.1;;;7.5;;
25443;SDS011;13368;52.346;4.678;2022-07-18T01:55:00;12.3;;;7.8;;
25443;SDS011;13368;52.346;4.678;2022-07-18T02:00:00;11.2;;;6.9;;
25443;SDS011;13368;52.346;4.678;2022-07-18T02:05:00;11.3;;;6.9;;
25443;SDS011;13368;52.346;4.678;2022-07-18T02:10:00;12.1;;;7.6;;
25443;SDS011;13368;52.346;4.678;2022-07-18T02:15:00;13.0;;;7.4;;
25443;SDS011;13368;52.346;4.678;2022-07-18T02:20:00;11.5;;;7.5;;
25443;SDS011;13368;52.346;4.678;2022-07-18T02:25:00;13.4;;;7.8;;
25443;SDS011;13368;52.346;4.678;2022-07-18T02:30:00;11.8;;;7.9;;
25443;SDS011;13368;52.346;4.678;2022-07-18T02:35:00;14.1;;;7.2;;
25443;SDS011;13368;52.346;4.678;2022-07-18T02:40:00;14.5;;;7.5;;
25443;SDS011;13368;52.346;4.678;2022-07-18T02:45:00;11.2;;;7.1;;
25443;SDS011;13368;52.346;4.678;2022-07-18T02:50:00;13.1;;;7.1;;
25443;SDS011;13368;52.346;4.678;2022-07-18T02:55:00;10.5;;;7.0;;
25443;SDS011;13368;52.346;4.678;2022-07-18T03:00:00;12.4;;;7.1;;
25443;SDS011;13368;52.346;4.678;2022-07-18T03:05:00;12.3;;;6.8;;
25443;SDS011;13368;52.346;4.678;2022-07-18T03:10:00;11.8;;;6.9;;
25443;SDS011;13368;52.346;4.678;2022-07-18T03:15:00;13.0;;;7.1;;
25443;SDS011;13368;52.346;4.678;2022-07-18T03:20:00;11.5;;;7.2;;
25443;SDS011;13368;52.346;4.678;2022-07-18T03:25:00;14.5;;;7.5;;
25443;SDS011;13368;52.346;4.678;2022-07-18T03:30:00;14.1;;;7.4;;
25443;SDS011;13368;52.346;4.678;2022-07-18T03:35:00;14.0;;;8.0;;
25443;SDS011;13368;52.346;4.678;2022-07-18T03:40:00;11.9;;;7.3;;
25443;SDS011;13368;52.346;4.678;2022-07-18T03:45:00;12.8;;;7.6;;
25443;SDS011;13368;52.346;4.678;2022-07-18T03:50:00;12.8;;;7.4;;
25443;SDS011;13368;52.346;4.678;2022-07-18T03:55:00;11.6;;;7.2;;
25443;SDS011;13368;52.346;4.678;2022-07-18T04:00:00;15.0;;;7.6;;
25443;SDS011;13368;52.346;4.678;2022-07-18T04:05:00;10.4;;;7.0;;
25443;SDS011;13368;52.346;4.678;2022-07-18T04:10:00;10.1;;;6.6;;
25443;SDS011;13368;52.346;4.678;2022-07-18T04:15:00;13.4;;;7.4;;
25443;SDS011;13368;52.346;4.678;2022-07-18T04:20:00;15.5;;;8.0;;
25443;SDS011;13368;52.346;4.678;2022-07-18T04:25:00;11.4;;;6.9;;
25443;SDS011;13368;52.346;4.678;2022-07-18T04:30:00;11.9;;;6.7;;
25443;SDS011;13368;52.346;4.678;2022-07-18T04:35:00;10.9;;;6.4;;
25443;SDS011;13368;52.346;4.678;2022-07-18T04:40:00;13.6;;;6.8;;
25443;SDS011;13368;52.346;4.678;2022-07-18T04:45:00;10.2;;;6.8;;
25443;SDS011;13368;52.346;4.678;2022-07-18T04:50:00;18.1;;;6.9;;
25443;SDS011;13368;52.346;4.678;2022-07-18T04:55:00;11.5;;;6.3;;
25443;SDS011;13368;52.346;4.678;2022-07-18T05:00:00;12.9;;;7.2;;
25443;SDS011;13368;52.346;4.678;2022-07-18T05:05:00;12.2;;;6.0;;
25443;SDS011;13368;52.346;4.678;2022-07-18T05:10:00;12.7;;;6.5;;
25443;SDS011;13368;52.346;4.678;2022-07-18T05:15:00;14.5;;;7.2;;
25443;SDS011;13368;52.346;4.678;2022-07-18T05:20:00;11.8;;;6.2;;
25443;SDS011;13368;52.346;4.678;2022-07-18T05:25:00;10.6;;;6.4;;
25443;SDS011;13368;52.346;4.678;2022-07-18T05:30:00;11.9;;;6.0;;
25443;SDS011;13368;52.346;4.678;2022-07-18T05:35:00;10.0;;;6.4;;
25443;SDS011;13368;52.346;4.678;2022-07-18T05:40:00;11.1;;;6.1;;
25443;SDS011;13368;52.346;4.678;2022-07-18T05:45:00;12.3;;;5.8;;
25443;SDS011;13368;52.346;4.678;2022-07-18T05:50:00;11.2;;;6.5;;
25443;SDS011;13368;52.346;4.678;2022-07-18T05:55:00;12.7;;;6.3;;
25443;SDS011;13368;52.346;4.678;2022-07-18T06:00:00;12.5;;;6.5;;
25443;SDS011;13368;52.346;4.678;2022-07-18T06:05:00;10.8;;;5.6;;
25443;SDS011;13368;52.346;4.678;2022-07-18T06:10:00;10.2;;;5.9;;
25443;SDS011;13368;52.346;4.678;2022-07-18T06:15:00;10.0;;;5.9;;
25443;SDS011;13368;52.346;4.678;2022-07-18T06:20:00;16.2;;;6.2;;
25443;SDS011;13368;52.346;4.678;2022-07-18T06:25:00;11.0;;;5.8;;
25443;SDS011;13368;52.346;4.678;2022-07-18T06:30:00;10.2;;;5.5;;
25443;SDS011;13368;52.346;4.678;2022-07-18T06:35:00;11.5;;;5.8;;
25443;SDS011;13368;52.346;4.678;2022-07-18T06:40:00;13.5;;;6.1;;
25443;SDS011;13368;52.346;4.678;2022-07-18T06:45:00;9.2;;;5.3;;
25443;SDS011;13368;52.346;4.678;2022-07-18T06:50:00;10.7;;;5.4;;
25443;SDS011;13368;52.346;4.678;2022-07-18T06:55:00;9.6;;;5.8;;
25443;SDS011;13368;52.346;4.678;2022-07-18T07:00:00;10.4;;;5.6;;
25443;SDS011;13368;52.346;4.678;2022-07-18T07:05:00;11.6;;;5.5;;
25443;SDS011;13368;52.346;4.678;2022-07-18T07:10:00;11.1;;;5.8;;
25443;SDS011;13368;52.346;4.678;2022-07-18T07:15:00;9.6;;;5.5;;
25443;SDS011;13368;52.346;4.678;2022-07-18T07:20:00;11.0;;;5.8;;
25443;SDS011;13368;52.346;4.678;2022-07-18T07:25:00;8.6;;;5.2;;
25443;SDS011;13368;52.346;4.678;2022-07-18T07:30:00;13.3;;;5.3;;
25443;SDS011;13368;52.346;4.678;2022-07-18T07:35:00;10.4;;;5.7;;
25443;SDS011;13368;52.346;4.678;2022-07-18T07:40:00;11.4;;;5.2;;
25443;SDS011;13368;52.346;4.678;2022-07-18T07:45:00;8.9;;;5.8;;
25443;SDS011;13368;52.346;4.678;2022-07-18T07:50:00;8.9;;;5.7;;
25443;SDS011;13368;52.346;4.678;2022-07-18T07:55:00;10.8;;;6.0;;
25443;SDS011;13368;52.346;4.678;2022-07-18T08:00:00;14.4;;;6.1;;
25443;SDS011;13368;52.346;4.678;2022-07-18T08:05:00;7.6;;;5.3;;
25443;SDS011;13368;52.346;4.678;2022-07-18T08:10:00;9.0;;;5.3;;
25443;SDS011;13368;52.346;4.678;2022-07-18T08:15:00;9.1;;;4.9;;
25443;SDS011;13368;52.346;4.678;2022-07-18T08:20:00;11.6;;;4.7;;
25443;SDS011;13368;52.346;4.678;2022-07-18T08:25:00;9.7;;;4.5;;
25443;SDS011;13368;52.346;4.678;2022-07-18T08:30:00;11.2;;;5.1;;
25443;SDS011;13368;52.346;4.678;2022-07-18T08:35:00;8.0;;;4.5;;
25443;SDS011;13368;52.346;4.678;2022-07-18T08:40:00;13.4;;;5.4;;
25443;SDS011;13368;52.346;4.678;2022-07-18T08:45:00;11.3;;;4.7;;
25443;SDS011;13368;52.346;4.678;2022-07-18T08:50:00;9.0;;;5.1;;
25443;SDS011;13368;52.346;4.678;2022-07-18T08:55:00;8.0;;;4.8;;
25443;SDS011;13368;52.346;4.678;2022-07-18T09:00:01;10.8;;;4.7;;
25443;SDS011;13368;52.346;4.678;2022-07-18T09:05:00;8.6;;;4.8;;
25443;SDS011;13368;52.346;4.678;2022-07-18T09:10:00;8.8;;;5.3;;
25443;SDS011;13368;52.346;4.678;2022-07-18T09:15:03;13.1;;;4.8;;
25443;SDS011;13368;52.346;4.678;2022-07-18T09:20:01;9.1;;;4.7;;
25443;SDS011;13368;52.346;4.678;2022-07-18T09:25:01;11.2;;;4.6;;
25443;SDS011;13368;52.346;4.678;2022-07-18T09:30:10;7.0;;;4.3;;
25443;SDS011;13368;52.346;4.678;2022-07-18T09:35:03;9.6;;;4.9;;
25443;SDS011;13368;52.346;4.678;2022-07-18T09:45:00;14.5;;;4.8;;
25443;SDS011;13368;52.346;4.678;2022-07-18T09:50:00;9.4;;;1.8;;
25443;SDS011;13368;52.346;4.678;2022-07-18T09:55:03;1.6;;;1.0;;
25443;SDS011;13368;52.346;4.678;2022-07-18T10:00:00;0.8;;;0.8;;
25443;SDS011;13368;52.346;4.678;2022-07-18T10:05:00;0.7;;;0.6;;
25443;SDS011;13368;52.346;4.678;2022-07-18T10:10:00;0.9;;;0.6;;
25443;SDS011;13368;52.346;4.678;2022-07-18T10:15:00;0.8;;;0.8;;
25443;SDS011;13368;52.346;4.678;2022-07-18T10:20:02;1.2;;;0.8;;
25443;SDS011;13368;52.346;4.678;2022-07-18T10:25:02;0.7;;;0.6;;
25443;SDS011;13368;52.346;4.678;2022-07-18T10:30:07;1.1;;;0.9;;
25443;SDS011;13368;52.346;4.678;2022-07-18T10:35:00;1.2;;;1.0;;
25443;SDS011;13368;52.346;4.678;2022-07-18T10:40:09;0.8;;;0.8;;
25443;SDS011;13368;52.346;4.678;2022-07-18T10:45:00;1.3;;;1.1;;
25443;SDS011;13368;52.346;4.678;2022-07-18T10:50:00;1.8;;;0.9;;
25443;SDS011;13368;52.346;4.678;2022-07-18T11:00:00;3.5;;;0.7;;
25443;SDS011;13368;52.346;4.678;2022-07-18T11:05:00;1.2;;;0.8;;
25443;SDS011;13368;52.346;4.678;2022-07-18T11:10:00;0.7;;;0.7;;
25443;SDS011;13368;52.346;4.678;2022-07-18T11:15:02;0.8;;;0.7;;
25443;SDS011;13368;52.346;4.678;2022-07-18T11:25:00;1.1;;;0.6;;
25443;SDS011;13368;52.346;4.678;2022-07-18T11:30:00;0.8;;;0.8;;
25443;SDS011;13368;52.346;4.678;2022-07-18T11:35:00;2.1;;;0.7;;
25443;SDS011;13368;52.346;4.678;2022-07-18T11:40:03;0.7;;;0.5;;
25443;SDS011;13368;52.346;4.678;2022-07-18T11:45:00;1.3;;;0.8;;
25443;SDS011;13368;52.346;4.678;2022-07-18T11:50:00;1.0;;;0.7;;
25443;SDS011;13368;52.346;4.678;2022-07-18T11:55:00;1.9;;;0.8;;
25443;SDS011;13368;52.346;4.678;2022-07-18T12:00:00;1.0;;;0.6;;
25443;SDS011;13368;52.346;4.678;2022-07-18T12:05:00;0.6;;;0.5;;
25443;SDS011;13368;52.346;4.678;2022-07-18T12:15:00;0.9;;;0.7;;
25443;SDS011;13368;52.346;4.678;2022-07-18T12:25:00;0.9;;;0.8;;
25443;SDS011;13368;52.346;4.678;2022-07-18T12:30:05;3.9;;;1.1;;
25443;SDS011;13368;52.346;4.678;2022-07-18T12:35:00;0.6;;;0.6;;
25443;SDS011;13368;52.346;4.678;2022-07-18T12:40:00;1.3;;;0.7;;
25443;SDS011;13368;52.346;4.678;2022-07-18T12:45:00;1.4;;;0.8;;
25443;SDS011;13368;52.346;4.678;2022-07-18T12:50:00;0.9;;;0.7;;
25443;SDS011;13368;52.346;4.678;2022-07-18T12:55:00;0.8;;;0.6;;
25443;SDS011;13368;52.346;4.678;2022-07-18T13:00:00;0.9;;;0.8;;
25443;SDS011;13368;52.346;4.678;2022-07-18T13:05:00;1.3;;;0.7;;
25443;SDS011;13368;52.346;4.678;2022-07-18T13:10:00;1.7;;;1.3;;
25443;SDS011;13368;52.346;4.678;2022-07-18T13:15:00;0.8;;;0.8;;
25443;SDS011;13368;52.346;4.678;2022-07-18T13:20:00;2.3;;;0.5;;
25443;SDS011;13368;52.346;4.678;2022-07-18T13:25:00;4.0;;;0.8;;
25443;SDS011;13368;52.346;4.678;2022-07-18T13:30:00;1.9;;;0.9;;
25443;SDS011;13368;52.346;4.678;2022-07-18T13:35:00;1.1;;;0.9;;
25443;SDS011;13368;52.346;4.678;2022-07-18T13:40:00;1.5;;;0.9;;
25443;SDS011;13368;52.346;4.678;2022-07-18T13:45:00;2.2;;;1.3;;
25443;SDS011;13368;52.346;4.678;2022-07-18T13:50:00;1.2;;;0.9;;
25443;SDS011;13368;52.346;4.678;2022-07-18T13:55:00;2.0;;;0.6;;
25443;SDS011;13368;52.346;4.678;2022-07-18T14:00:00;1.6;;;1.0;;
25443;SDS011;13368;52.346;4.678;2022-07-18T14:05:00;0.7;;;0.7;;
25443;SDS011;13368;52.346;4.678;2022-07-18T14:10:00;1.0;;;0.8;;
25443;SDS011;13368;52.346;4.678;2022-07-18T14:15:00;2.2;;;1.0;;
25443;SDS011;13368;52.346;4.678;2022-07-18T14:20:00;1.9;;;1.1;;
25443;SDS011;13368;52.346;4.678;2022-07-18T14:25:00;3.1;;;0.8;;
25443;SDS011;13368;52.346;4.678;2022-07-18T14:30:00;0.7;;;0.5;;
25443;SDS011;13368;52.346;4.678;2022-07-18T14:35:00;2.0;;;1.0;;
25443;SDS011;13368;52.346;4.678;2022-07-18T14:40:00;1.8;;;1.1;;
25443;SDS011;13368;52.346;4.678;2022-07-18T14:45:00;2.5;;;0.9;;
25443;SDS011;13368;52.346;4.678;2022-07-18T14:50:00;2.4;;;1.2;;
25443;SDS011;13368;52.346;4.678;2022-07-18T14:55:00;0.9;;;0.8;;
25443;SDS011;13368;52.346;4.678;2022-07-18T15:00:00;1.4;;;1.1;;
25443;SDS011;13368;52.346;4.678;2022-07-18T15:05:00;1.6;;;1.1;;
25443;SDS011;13368;52.346;4.678;2022-07-18T15:10:00;3.4;;;1.4;;
25443;SDS011;13368;52.346;4.678;2022-07-18T15:15:00;1.2;;;1.1;;
25443;SDS011;13368;52.346;4.678;2022-07-18T15:20:00;1.2;;;1.1;;
25443;SDS011;13368;52.346;4.678;2022-07-18T15:25:00;4.5;;;1.7;;
25443;SDS011;13368;52.346;4.678;2022-07-18T15:30:00;0.8;;;0.8;;
25443;SDS011;13368;52.346;4.678;2022-07-18T15:35:00;4.2;;;1.9;;
25443;SDS011;13368;52.346;4.678;2022-07-18T15:40:00;2.0;;;1.2;;
25443;SDS011;13368;52.346;4.678;2022-07-18T15:45:00;2.1;;;1.2;;
25443;SDS011;13368;52.346;4.678;2022-07-18T15:50:00;2.1;;;0.9;;
25443;SDS011;13368;52.346;4.678;2022-07-18T15:55:00;3.2;;;1.4;;
25443;SDS011;13368;52.346;4.678;2022-07-18T16:00:00;1.1;;;1.0;;
25443;SDS011;13368;52.346;4.678;2022-07-18T16:05:00;2.8;;;1.2;;
25443;SDS011;13368;52.346;4.678;2022-07-18T16:10:00;3.1;;;0.9;;
25443;SDS011;13368;52.346;4.678;2022-07-18T16:15:00;1.3;;;1.0;;
25443;SDS011;13368;52.346;4.678;2022-07-18T16:20:00;2.4;;;1.1;;
25443;SDS011;13368;52.346;4.678;2022-07-18T16:25:00;1.7;;;1.1;;
25443;SDS011;13368;52.346;4.678;2022-07-18T16:30:00;1.0;;;0.8;;
25443;SDS011;13368;52.346;4.678;2022-07-18T16:35:00;1.8;;;1.0;;
25443;SDS011;13368;52.346;4.678;2022-07-18T16:40:00;0.8;;;0.7;;
25443;SDS011;13368;52.346;4.678;2022-07-18T16:45:00;1.2;;;0.9;;
25443;SDS011;13368;52.346;4.678;2022-07-18T16:50:00;1.4;;;0.9;;
25443;SDS011;13368;52.346;4.678;2022-07-18T16:55:00;1.7;;;1.0;;
25443;SDS011;13368;52.346;4.678;2022-07-18T17:00:00;1.4;;;1.3;;
25443;SDS011;13368;52.346;4.678;2022-07-18T17:05:00;1.6;;;1.0;;
25443;SDS011;13368;52.346;4.678;2022-07-18T17:10:00;0.8;;;0.7;;
25443;SDS011;13368;52.346;4.678;2022-07-18T17:15:00;1.0;;;0.8;;
25443;SDS011;13368;52.346;4.678;2022-07-18T17:20:00;2.2;;;0.6;;
25443;SDS011;13368;52.346;4.678;2022-07-18T17:25:00;1.9;;;1.1;;
25443;SDS011;13368;52.346;4.678;2022-07-18T17:30:00;1.0;;;0.9;;
25443;SDS011;13368;52.346;4.678;2022-07-18T17:35:00;3.7;;;0.8;;
25443;SDS011;13368;52.346;4.678;2022-07-18T17:40:00;0.7;;;0.5;;
25443;SDS011;13368;52.346;4.678;2022-07-18T17:45:00;1.5;;;1.0;;
25443;SDS011;13368;52.346;4.678;2022-07-18T17:50:00;0.9;;;0.6;;
25443;SDS011;13368;52.346;4.678;2022-07-18T17:55:00;1.8;;;0.8;;
25443;SDS011;13368;52.346;4.678;2022-07-18T18:00:00;1.3;;;1.0;;
25443;SDS011;13368;52.346;4.678;2022-07-18T18:05:00;1.7;;;1.3;;
25443;SDS011;13368;52.346;4.678;2022-07-18T18:10:00;1.8;;;1.1;;
25443;SDS011;13368;52.346;4.678;2022-07-18T18:15:00;0.8;;;0.7;;
25443;SDS011;13368;52.346;4.678;2022-07-18T18:20:00;0.9;;;0.8;;
25443;SDS011;13368;52.346;4.678;2022-07-18T18:25:00;3.1;;;1.0;;
25443;SDS011;13368;52.346;4.678;2022-07-18T18:30:00;0.8;;;0.8;;
25443;SDS011;13368;52.346;4.678;2022-07-18T18:35:00;1.5;;;1.0;;
25443;SDS011;13368;52.346;4.678;2022-07-18T18:40:00;2.1;;;1.3;;
25443;SDS011;13368;52.346;4.678;2022-07-18T18:45:00;1.7;;;1.0;;
25443;SDS011;13368;52.346;4.678;2022-07-18T18:50:00;3.8;;;1.9;;
25443;SDS011;13368;52.346;4.678;2022-07-18T18:55:00;7.0;;;2.3;;
25443;SDS011;13368;52.346;4.678;2022-07-18T19:00:00;1.5;;;1.1;;
25443;SDS011;13368;52.346;4.678;2022-07-18T19:05:00;2.0;;;1.4;;
25443;SDS011;13368;52.346;4.678;2022-07-18T19:10:00;1.6;;;1.3;;
25443;SDS011;13368;52.346;4.678;2022-07-18T19:15:00;1.3;;;1.2;;
25443;SDS011;13368;52.346;4.678;2022-07-18T19:20:00;1.2;;;1.0;;
25443;SDS011;13368;52.346;4.678;2022-07-18T19:25:00;1.9;;;1.2;;
25443;SDS011;13368;52.346;4.678;2022-07-18T19:30:00;1.5;;;1.3;;
25443;SDS011;13368;52.346;4.678;2022-07-18T19:35:00;1.1;;;1.0;;
25443;SDS011;13368;52.346;4.678;2022-07-18T19:40:00;1.3;;;1.1;;
25443;SDS011;13368;52.346;4.678;2022-07-18T19:45:00;2.4;;;1.3;;
25443;SDS011;13368;52.346;4.678;2022-07-18T19:50:00;1.2;;;0.9;;
25443;SDS011;13368;52.346;4.678;2022-07-18T19:55:00;2.5;;;1.4;;
25443;SDS011;13368;52.346;4.678;2022-07-18T20:00:00;2.0;;;1.2;;
25443;SDS011;13368;52.346;4.678;2022-07-18T20:05:00;1.6;;;1.0;;
25443;SDS011;13368;52.346;4.678;2022-07-18T20:10:00;5.0;;;1.2;;
25443;SDS011;13368;52.346;4.678;2022-07-18T20:15:00;2.0;;;1.1;;
25443;SDS011;13368;52.346;4.678;2022-07-18T20:20:00;1.7;;;1.3;;
25443;SDS011;13368;52.346;4.678;2022-07-18T20:25:00;1.7;;;1.0;;
25443;SDS011;13368;52.346;4.678;2022-07-18T20:30:00;2.2;;;1.6;;
25443;SDS011;13368;52.346;4.678;2022-07-18T20:35:00;5.7;;;1.3;;
25443;SDS011;13368;52.346;4.678;2022-07-18T20:40:00;2.5;;;1.6;;
25443;SDS011;13368;52.346;4.678;2022-07-18T20:45:00;1.1;;;1.1;;
25443;SDS011;13368;52.346;4.678;2022-07-18T20:50:00;1.5;;;1.2;;
25443;SDS011;13368;52.346;4.678;2022-07-18T20:55:00;2.4;;;1.1;;
25443;SDS011;13368;52.346;4.678;2022-07-18T21:00:00;1.2;;;1.1;;
25443;SDS011;13368;52.346;4.678;2022-07-18T21:05:00;1.8;;;1.4;;
25443;SDS011;13368;52.346;4.678;2022-07-18T21:10:00;1.6;;;1.5;;
25443;SDS011;13368;52.346;4.678;2022-07-18T21:15:00;2.0;;;1.1;;
25443;SDS011;13368;52.346;4.678;2022-07-18T21:20:00;2.7;;;1.3;;
25443;SDS011;13368;52.346;4.678;2022-07-18T21:25:00;1.1;;;1.0;;
25443;SDS011;13368;52.346;4.678;2022-07-18T21:30:00;4.6;;;1.7;;
25443;SDS011;13368;52.346;4.678;2022-07-18T21:35:00;4.6;;;1.6;;
25443;SDS011;13368;52.346;4.678;2022-07-18T21:40:00;1.7;;;1.2;;
25443;SDS011;13368;52.346;4.678;2022-07-18T21:45:00;3.2;;;1.8;;
25443;SDS011;13368;52.346;4.678;2022-07-18T21:50:00;2.2;;;1.0;;
25443;SDS011;13368;52.346;4.678;2022-07-18T21:55:00;1.6;;;1.3;;
25443;SDS011;13368;52.346;4.678;2022-07-18T22:00:00;1.4;;;1.2;;
25443;SDS011;13368;52.346;4.678;2022-07-18T22:05:00;4.1;;;1.5;;
25443;SDS011;13368;52.346;4.678;2022-07-18T22:10:00;1.7;;;1.6;;
25443;SDS011;13368;52.346;4.678;2022-07-18T22:15:00;2.8;;;1.9;;
25443;SDS011;13368;52.346;4.678;2022-07-18T22:20:00;1.6;;;1.0;;
25443;SDS011;13368;52.346;4.678;2022-07-18T22:25:00;3.4;;;1.3;;
25443;SDS011;13368;52.346;4.678;2022-07-18T22:30:00;2.2;;;1.1;;
25443;SDS011;13368;52.346;4.678;2022-07-18T22:35:00;7.9;;;1.4;;
25443;SDS011;13368;52.346;4.678;2022-07-18T22:40:00;2.0;;;1.7;;
25443;SDS011;13368;52.346;4.678;2022-07-18T22:45:00;2.3;;;1.5;;
25443;SDS011;13368;52.346;4.678;2022-07-18T22:50:00;1.3;;;1.2;;
25443;SDS011;13368;52.346;4.678;2022-07-18T22:55:00;3.8;;;1.8;;
25443;SDS011;13368;52.346;4.678;2022-07-18T23:00:00;3.1;;;1.3;;
25443;SDS011;13368;52.346;4.678;2022-07-18T23:05:00;3.4;;;1.6;;
25443;SDS011;13368;52.346;4.678;2022-07-18T23:10:00;3.0;;;1.6;;
25443;SDS011;13368;52.346;4.678;2022-07-18T23:15:00;2.0;;;1.5;;
25443;SDS011;13368;52.346;4.678;2022-07-18T23:20:00;1.8;;;1.4;;
25443;SDS011;13368;52.346;4.678;2022-07-18T23:25:00;2.6;;;1.8;;
25443;SDS011;13368;52.346;4.678;2022-07-18T23:30:00;3.0;;;1.5;;
25443;SDS011;13368;52.346;4.678;2022-07-18T23:35:00;2.2;;;1.4;;
25443;SDS011;13368;52.346;4.678;2022-07-18T23:40:00;2.3;;;1.6;;
25443;SDS011;13368;52.346;4.678;2022-07-18T23:45:00;1.5;;;1.4;;
25443;SDS011;13368;52.346;4.678;2022-07-18T23:50:00;1.5;;;1.4;;
25443;SDS011;13368;52.346;4.678;2022-07-18T23:55:00;3.2;;;1.8;;
